Terminal Aerodrome Forecast
Issued by NWS

Home | Current Version | Previous Version | Text Only | Print | Product List | Glossary On
Versions: 1 2 3 4 5 6 7 8 9 10 11 12 13
126
FTUS45 KRIW 240525
TAFRKS
TAF
KRKS 240525Z 2406/2506 25009KT P6SM SCT150
     FM241900 26011KT P6SM FEW120
     FM242030 28014G22KT P6SM SCT120
     FM250100 24009KT P6SM FEW120=

USA.gov is the U.S. government's official web portal to all federal, state and local government web resources and services.